Time;durP1;ratioP1;P1;durP2;ratioP2;P2;SDS_P1;SDS_P2;PMS_P1;PMS_P2;Temp;Humidity;BMP_temperature;BMP_pressure;BME280_temperature;BME280_humidity;BME280_pressure;Samples;Min_cycle;Max_cycle;Signal;HPM_P1;HPM_P2
2021/11/04 04:01:29;;;;;;;;;;;;;;;;;;;;;
2021/11/04 04:16:21;;;;;;;46.48;26.20;;;;;;;9.93;92.79;94507.39;827575;71;28729;-85
2021/11/04 04:31:15;;;;;;;42.80;26.37;;;;;;;9.89;92.13;94509.55;834203;71;31797;-86
2021/11/04 04:46:13;;;;;;;42.90;25.40;;;;;;;9.73;90.55;94516.32;829118;71;31450;-85
2021/11/04 05:01:31;;;;;;;;;;;;;;;;;;;;;
2021/11/04 05:16:31;;;;;;;34.85;23.77;;;;;;;9.43;88.94;94512.99;828505;71;31714;-87
2021/11/04 05:31:08;;;;;;;33.23;21.68;;;;;;;9.52;88.50;94500.05;828045;71;28344;-79
2021/11/04 05:46:07;;;;;;;31.57;21.93;;;;;;;;;;819767;71;30217;-79
2021/11/04 06:01:14;;;;;;;33.73;23.95;;;;;;;10.60;85.40;94545.30;827124;71;33304;-79
2021/11/04 06:16:13;;;;;;;34.35;27.00;;;;;;;12.15;84.22;94600.64;822616;71;30357;-78
2021/11/04 06:31:13;;;;;;;37.08;26.45;;;;;;;13.01;81.76;94585.84;818548;71;30836;-79
2021/11/04 06:46:08;;;;;;;37.03;25.08;;;;;;;14.21;78.60;94559.52;827532;71;30058;-75
2021/11/04 07:01:16;;;;;;;30.48;24.07;;;;;;;15.23;75.39;94599.23;820557;71;33799;-75
2021/11/04 07:16:16;;;;;;;27.07;20.65;;;;;;;16.41;68.93;94601.81;826798;71;32769;-75
2021/11/04 07:31:14;;;;;;;24.92;20.52;;;;;;;17.36;66.18;94594.97;835309;71;32628;-79
2021/11/04 07:46:10;;;;;;;22.90;18.80;;;;;;;18.81;61.26;94600.97;827503;71;30843;-77
2021/11/04 08:01:09;;;;;;;24.55;19.52;;;;;;;18.13;59.98;94610.92;825996;71;30446;-78
2021/11/04 09:16:13;;;;;;;23.90;15.93;;;;;;;19.58;53.91;94568.02;828540;71;32720;-78
2021/11/04 09:31:10;;;;;;;14.05;12.15;;;;;;;19.93;53.17;94586.80;820681;71;30415;-75
2021/11/04 09:46:14;;;;;;;14.65;10.35;;;;;;;20.93;51.50;94591.44;822292;71;33377;-78
2021/11/04 10:01:25;;;;;;;13.40;9.93;;;;;;;22.20;49.57;94558.51;822468;71;29786;-79
2021/11/04 10:16:10;;;;;;;15.70;12.10;;;;;;;22.73;47.07;94531.74;827917;71;30887;-77
2021/11/04 10:31:16;;;;;;;13.43;11.10;;;;;;;22.40;46.77;94519.88;826817;71;32683;-77
2021/11/04 10:46:12;;;;;;;13.73;12.23;;;;;;;22.34;47.14;94508.50;828940;71;30281;-76
2021/11/04 11:01:13;;;;;;;11.83;9.47;;;;;;;21.98;46.90;94498.08;828049;71;30365;-75
2021/11/04 11:16:10;;;;;;;13.40;11.40;;;;;;;21.51;48.55;94477.14;827777;71;30280;-76
2021/11/04 11:31:19;;;;;;;14.93;10.33;;;;;;;22.01;48.56;94469.29;824335;70;33392;-75
2021/11/04 11:46:15;;;;;;;13.70;9.40;;;;;;;22.44;47.56;94460.31;827651;71;33063;-76
2021/11/04 12:01:14;;;;;;;12.07;9.87;;;;;;;23.30;46.54;94461.99;828424;70;29808;-80
2021/11/04 12:16:21;;;;;;;10.73;9.53;;;;;;;23.55;45.95;94463.52;827884;71;30334;-77
2021/11/04 12:31:20;;;;;;;10.10;9.00;;;;;;;23.35;46.50;94464.89;826869;71;33024;-76
2021/11/04 12:46:25;;;;;;;10.90;9.07;;;;;;;23.10;46.77;94469.45;827287;71;32701;-78
2021/11/04 13:01:19;;;;;;;11.30;10.03;;;;;;;22.62;47.58;94462.63;833314;71;32996;-75
2021/11/04 13:16:26;;;;;;;12.03;10.57;;;;;;;22.53;48.26;94442.86;834353;71;32711;-80
2021/11/04 13:31:18;;;;;;;21.60;15.97;;;;;;;22.28;49.17;94445.22;826588;71;32688;-75
2021/11/04 13:46:18;;;;;;;46.50;37.83;;;;;;;21.81;50.36;94457.94;827726;71;30331;-78
2021/11/04 14:01:18;;;;;;;12.60;10.40;;;;;;;21.27;51.78;94441.67;833461;71;33272;-79
2021/11/04 14:16:11;;;;;;;12.20;10.07;;;;;;;20.72;53.18;94447.22;827713;71;29817;-76
2021/11/04 14:31:08;;;;;;;12.57;9.90;;;;;;;20.32;54.86;94434.23;828218;71;29706;-79
2021/11/04 14:46:18;;;;;;;16.93;11.93;;;;;;;19.86;56.92;94430.81;833400;71;32905;-76
2021/11/04 15:16:15;;;;;;;17.30;12.63;;;;;;;18.73;60.13;94459.06;827184;71;33248;-76
2021/11/04 15:31:18;;;;;;;24.92;15.10;;;;;;;18.24;62.26;94475.77;827035;71;31759;-78
2021/11/04 16:01:20;;;;;;;16.10;11.22;;;;;;;17.07;66.03;94517.67;827202;71;32788;-82
2021/11/04 16:31:17;;;;;;;18.37;13.00;;;;;;;16.57;65.68;94554.34;827204;71;31519;-79
2021/11/04 16:46:23;;;;;;;23.85;17.57;;;;;;;16.38;66.81;94564.84;833652;71;29692;-78
2021/11/04 17:01:19;;;;;;;35.00;24.82;;;;;;;16.14;68.58;94585.31;833484;71;33291;-78
2021/11/04 17:46:56;;;;;;;38.33;25.95;;;;;;;15.50;71.85;94559.72;824782;70;32946;-79
2021/11/04 18:01:33;;;;;;;;;;;;;;;;;;;;;
2021/11/04 18:31:30;;;;;;;34.20;22.60;;;;;;;14.95;73.24;94599.58;824943;71;32799;-78
2021/11/04 18:46:46;;;;;;;31.73;22.13;;;;;;;14.80;73.29;94577.58;774699;75;33041;-80
2021/11/04 19:01:27;;;;;;;31.82;22.02;;;;;;;14.76;73.07;94597.27;820232;71;32794;-79
2021/11/04 19:16:15;;;;;;;31.30;20.60;;;;;;;14.60;73.94;94589.57;819633;71;33327;-77
2021/11/04 19:46:18;;;;;;;27.48;20.10;;;;;;;14.40;74.40;94618.09;827724;71;31917;-77
2021/11/04 20:01:11;;;;;;;24.65;17.60;;;;;;;14.21;74.77;94635.52;793359;74;31660;-79
2021/11/04 20:16:11;;;;;;;32.13;19.42;;;;;;;14.07;75.08;94633.55;826751;71;29707;-79
2021/11/04 20:31:15;;;;;;;55.67;34.23;;;;;;;14.00;75.99;94665.63;824560;71;32851;-76
2021/11/04 20:46:28;;;;;;;69.62;39.45;;;;;;;13.89;76.33;94649.84;833741;71;33685;-79
2021/11/04 21:16:35;;;;;;;26.40;18.87;;;;;;;13.45;77.01;94620.41;823900;71;33234;-78
2021/11/04 21:31:08;;;;;;;28.52;20.35;;;;;;;13.43;77.07;94612.79;833603;71;30186;-78
2021/11/04 21:46:15;;;;;;;31.70;21.93;;;;;;;13.24;77.23;94611.66;833838;71;29648;-79
2021/11/04 22:01:17;;;;;;;28.02;20.57;;;;;;;13.12;77.67;94618.78;818442;71;32783;-80
2021/11/04 22:16:12;;;;;;;26.07;20.43;;;;;;;13.07;77.77;94613.63;828041;71;31972;-77
2021/11/04 22:31:18;;;;;;;29.85;20.95;;;;;;;12.81;77.99;94581.84;826886;71;32660;-78
2021/11/04 22:46:14;;;;;;;26.97;19.00;;;;;;;12.87;78.09;94593.80;833798;71;33293;-77
2021/11/04 23:01:10;;;;;;;24.52;18.20;;;;;;;12.85;78.51;94571.48;828180;71;30700;-77
2021/11/04 23:16:08;;;;;;;23.62;18.02;;;;;;;12.86;78.72;94566.47;833316;71;29719;-77
2021/11/04 23:31:08;;;;;;;24.95;16.80;;;;;;;12.85;78.64;94575.44;827277;71;30233;-78
2021/11/04 23:46:15;;;;;;;25.25;16.57;;;;;;;12.76;78.77;94594.59;825010;71;32746;-76
